Time;durP1;ratioP1;P1;durP2;ratioP2;P2;SDS_P1;SDS_P2;PMS_P1;PMS_P2;Temp;Humidity;BMP_temperature;BMP_pressure;BME280_temperature;BME280_humidity;BME280_pressure;Samples;Min_cycle;Max_cycle;Signal;HPM_P1;HPM_P2
2022/05/05 00:00:14;;;;;;;34.03;14.45;;;;;;;10.18;84.94;92822.28;5009827;28;20042;-78
2022/05/05 00:02:40;;;;;;;26.90;12.30;;;;;;;10.17;87.29;92818.09;4979195;28;20031;-78
2022/05/05 00:05:06;;;;;;;24.65;11.02;;;;;;;10.31;86.84;92823.53;4996822;28;20046;-78
2022/05/05 00:07:32;;;;;;;27.85;9.50;;;;;;;10.22;87.24;92822.50;5008910;28;20026;-78
2022/05/05 00:09:57;;;;;;;18.80;9.68;;;;;;;10.21;85.52;92821.72;5014786;28;20033;-78
2022/05/05 00:15:07;;;;;;;20.15;10.15;;;;;;;10.27;83.85;92817.25;5015785;28;20042;-78
2022/05/05 00:17:34;;;;;;;31.52;13.57;;;;;;;10.27;83.42;92808.59;5014597;28;20040;-78
2022/05/05 00:20:00;;;;;;;37.25;15.30;;;;;;;10.25;83.06;92811.50;5017052;28;20022;-78
2022/05/05 00:22:26;;;;;;;32.47;13.77;;;;;;;10.29;81.50;92804.69;5014709;28;20042;-78
2022/05/05 00:24:52;;;;;;;29.10;13.65;;;;;;;10.33;80.19;92804.91;5016016;28;20045;-78
2022/05/05 00:27:17;;;;;;;25.77;12.32;;;;;;;10.56;80.27;92796.31;5014493;28;20442;-78
2022/05/05 00:29:43;;;;;;;31.38;13.63;;;;;;;10.47;79.60;92800.59;5015215;28;20045;-78
2022/05/05 00:32:11;;;;;;;34.75;16.27;;;;;;;10.38;79.46;92776.88;4997810;28;20077;-78
2022/05/05 00:34:37;;;;;;;36.80;15.13;;;;;;;10.40;77.92;92781.81;5015599;28;20034;-78
2022/05/05 00:37:04;;;;;;;31.52;13.50;;;;;;;10.39;78.26;92777.63;5014894;28;20455;-78
2022/05/05 00:39:29;;;;;;;32.33;13.07;;;;;;;10.39;77.22;92781.03;5014556;28;20046;-78
2022/05/05 00:41:58;;;;;;;25.23;10.02;;;;;;;10.35;77.19;92774.00;5014343;28;20049;-78
2022/05/05 00:44:23;;;;;;;22.10;10.02;;;;;;;10.44;77.05;92782.81;5015721;28;20022;-77
2022/05/05 00:46:51;;;;;;;18.77;9.70;;;;;;;10.40;76.70;92780.00;5015401;28;20044;-78
2022/05/05 00:49:18;;;;;;;20.88;9.48;;;;;;;10.38;77.20;92778.69;4996868;28;20069;-78
2022/05/05 00:51:45;;;;;;;22.17;10.52;;;;;;;10.36;76.74;92773.75;5015933;28;20037;-78
2022/05/05 00:54:11;;;;;;;25.70;11.57;;;;;;;10.36;76.75;92770.34;4966350;28;20037;-78
2022/05/05 00:56:37;;;;;;;26.48;12.00;;;;;;;10.34;76.84;92772.47;5015830;28;20044;-78
2022/05/05 00:59:05;;;;;;;22.70;10.95;;;;;;;10.31;76.29;92767.75;5014242;28;20451;-78
2022/05/05 01:01:31;;;;;;;24.05;11.02;;;;;;;10.31;76.59;92773.81;4996940;28;20038;-78
2022/05/05 01:03:57;;;;;;;24.35;11.75;;;;;;;10.29;76.71;92773.28;5014746;28;20089;-78
2022/05/05 01:06:23;;;;;;;25.77;11.40;;;;;;;10.32;76.67;92764.09;5015362;28;20030;-78
2022/05/05 01:08:48;;;;;;;28.30;11.57;;;;;;;10.37;76.53;92766.66;5013993;28;20052;-78
2022/05/05 01:11:14;;;;;;;24.70;12.18;;;;;;;10.35;76.29;92766.94;5013656;28;20115;-78
2022/05/05 01:13:41;;;;;;;25.27;11.23;;;;;;;10.34;76.59;92768.00;5022647;28;20042;-78
2022/05/05 01:16:08;;;;;;;26.00;11.77;;;;;;;10.40;75.99;92773.94;5013615;28;20041;-78
2022/05/05 01:18:34;;;;;;;23.17;11.52;;;;;;;10.38;76.71;92768.22;5015400;28;20030;-78
2022/05/05 01:21:00;;;;;;;25.20;11.65;;;;;;;10.32;78.54;92771.97;5015130;28;20032;-78
2022/05/05 01:23:25;;;;;;;24.17;10.95;;;;;;;10.28;79.30;92776.16;5014082;28;20034;-78
2022/05/05 01:28:45;;;;;;;21.42;11.40;;;;;;;10.17;81.12;92767.59;5015230;28;20033;-78
2022/05/05 01:31:12;;;;;;;22.10;11.20;;;;;;;10.17;81.57;92772.84;5015255;28;20026;-78
2022/05/05 01:33:37;;;;;;;23.95;10.57;;;;;;;10.16;82.72;92773.91;5004699;28;20034;-78
2022/05/05 01:36:04;;;;;;;18.77;9.30;;;;;;;10.09;85.42;92771.63;5015090;28;20036;-78
2022/05/05 01:38:37;;;;;;;16.90;8.35;;;;;;;10.12;84.68;92775.50;5019493;28;20121;-78
2022/05/05 01:41:14;;;;;;;19.30;9.32;;;;;;;10.07;83.63;92781.56;5019990;28;20045;-78
2022/05/05 01:43:42;;;;;;;18.95;10.18;;;;;;;10.05;84.23;92777.66;5017537;28;20040;-78
2022/05/05 01:46:07;;;;;;;20.00;10.52;;;;;;;10.04;84.46;92781.31;5019276;28;20021;-78
2022/05/05 01:48:34;;;;;;;19.65;9.77;;;;;;;10.03;85.40;92774.56;5018784;28;20038;-78
2022/05/05 01:51:00;;;;;;;19.48;9.55;;;;;;;9.93;87.20;92767.56;5020226;28;20030;-78
2022/05/05 01:53:26;;;;;;;18.17;9.15;;;;;;;9.94;85.39;92779.59;5020175;28;20040;-78
2022/05/05 01:55:52;;;;;;;17.63;9.05;;;;;;;9.89;84.35;92777.78;5019744;28;20117;-78
2022/05/05 01:58:18;;;;;;;19.42;9.35;;;;;;;9.88;84.68;92771.00;5014115;28;20045;-78
2022/05/05 02:00:43;;;;;;;16.67;8.13;;;;;;;9.87;85.42;92773.91;5014792;28;20072;-78
2022/05/05 02:03:13;;;;;;;21.17;9.30;;;;;;;9.84;86.44;92766.59;5019354;28;20446;-78
2022/05/05 02:05:43;;;;;;;21.55;9.43;;;;;;;9.86;87.29;92769.72;5019940;28;20026;-78
2022/05/05 02:08:09;;;;;;;20.23;9.32;;;;;;;9.84;87.70;92770.00;5017495;28;20387;-77
2022/05/05 02:10:35;;;;;;;24.70;11.30;;;;;;;9.74;87.84;92773.47;5015094;28;20068;-77
2022/05/05 02:13:01;;;;;;;16.85;9.55;;;;;;;9.65;88.06;92762.03;5013751;28;20030;-77
2022/05/05 02:15:28;;;;;;;23.20;11.88;;;;;;;9.70;87.45;92775.06;5013784;28;20038;-77
2022/05/05 02:17:56;;;;;;;22.63;11.40;;;;;;;9.70;87.61;92774.28;5013882;28;20042;-77
2022/05/05 02:20:22;;;;;;;21.50;11.40;;;;;;;9.70;88.22;92772.44;5015089;28;20394;-77
2022/05/05 02:22:47;;;;;;;25.20;12.63;;;;;;;9.71;88.19;92766.16;5014991;28;20061;-78
2022/05/05 02:25:13;;;;;;;23.98;11.32;;;;;;;9.71;88.01;92774.00;5014721;28;20054;-77
2022/05/05 02:27:50;;;;;;;32.03;10.98;;;;;;;9.68;88.60;92751.03;5014740;28;20064;-77
2022/05/05 02:30:18;;;;;;;26.90;11.50;;;;;;;9.73;89.52;92763.28;5014685;28;20038;-77
2022/05/05 02:32:44;;;;;;;21.05;10.43;;;;;;;9.69;89.00;92765.66;4998267;28;20034;-77
2022/05/05 02:35:10;;;;;;;21.00;10.77;;;;;;;9.70;89.03;92766.44;5004476;28;20030;-77
2022/05/05 02:40:21;;;;;;;22.98;11.02;;;;;;;9.83;88.00;92763.19;5014568;28;20510;-77
2022/05/05 02:42:46;;;;;;;27.55;11.10;;;;;;;9.89;85.23;92775.19;5014312;28;20045;-77
2022/05/05 02:45:12;;;;;;;28.33;11.52;;;;;;;10.01;85.77;92775.59;5012819;28;20239;-77
2022/05/05 02:47:37;;;;;;;22.70;11.02;;;;;;;9.97;86.21;92776.41;5014720;28;20041;-77
2022/05/05 02:50:03;;;;;;;25.67;12.73;;;;;;;9.85;86.98;92773.38;5014530;28;20046;-77
2022/05/05 02:52:29;;;;;;;23.98;11.85;;;;;;;9.75;87.13;92771.66;5014514;28;20037;-77
2022/05/05 02:54:55;;;;;;;23.08;10.35;;;;;;;9.74;87.16;92773.47;4996664;28;20054;-77
2022/05/05 02:57:24;;;;;;;18.52;9.75;;;;;;;9.79;86.62;92783.09;5013708;28;20038;-77
2022/05/05 02:59:53;;;;;;;20.80;10.45;;;;;;;9.75;85.07;92777.66;5014342;28;20042;-77
2022/05/05 03:02:19;;;;;;;19.15;9.80;;;;;;;9.65;85.92;92772.47;5012682;28;20051;-77
2022/05/05 03:04:45;;;;;;;18.58;10.30;;;;;;;9.63;86.44;92779.81;5014004;28;20084;-78
2022/05/05 03:07:11;;;;;;;20.45;10.07;;;;;;;9.66;87.97;92779.28;5013764;28;20037;-77
2022/05/05 03:09:39;;;;;;;18.58;9.93;;;;;;;9.65;88.08;92776.94;5014447;28;20399;-77
2022/05/05 03:12:06;;;;;;;20.40;9.90;;;;;;;9.65;88.01;92777.72;5014021;28;20562;-77
2022/05/05 03:14:31;;;;;;;18.85;9.50;;;;;;;9.64;87.85;92776.16;5014141;28;20045;-77
2022/05/05 03:16:57;;;;;;;16.10;8.65;;;;;;;9.62;87.13;92767.03;5012324;28;20034;-78
2022/05/05 03:19:23;;;;;;;15.27;8.30;;;;;;;9.68;85.91;92761.50;5012943;28;20049;-78
2022/05/05 03:21:48;;;;;;;14.52;8.38;;;;;;;9.71;85.29;92770.63;4994677;28;20468;-77
2022/05/05 03:24:14;;;;;;;18.08;8.88;;;;;;;9.70;85.34;92769.03;4993369;28;20408;-78
2022/05/05 03:26:40;;;;;;;18.65;9.23;;;;;;;9.70;85.23;92769.81;4993157;28;20038;-77
2022/05/05 03:29:05;;;;;;;22.00;8.98;;;;;;;9.71;85.34;92770.63;5012011;28;20030;-77
2022/05/05 03:31:32;;;;;;;26.20;10.80;;;;;;;9.91;82.64;92764.47;5012508;28;20040;-77
2022/05/05 03:33:58;;;;;;;20.55;9.93;;;;;;;9.83;83.69;92762.44;5012450;28;20487;-77
2022/05/05 03:36:24;;;;;;;20.58;9.90;;;;;;;9.84;85.04;92761.34;5013041;28;20056;-78
2022/05/05 03:38:54;;;;;;;21.40;10.20;;;;;;;9.79;86.25;92756.94;5012905;28;20034;-78
2022/05/05 03:41:20;;;;;;;20.23;10.25;;;;;;;9.75;86.22;92754.13;5012486;28;20038;-78
2022/05/05 03:43:46;;;;;;;25.75;11.57;;;;;;;9.70;86.13;92754.13;4995985;28;20026;-78
2022/05/05 03:46:11;;;;;;;27.42;11.23;;;;;;;9.72;86.13;92749.41;5013652;28;20034;-78
2022/05/05 03:48:37;;;;;;;25.75;11.95;;;;;;;9.74;86.30;92752.53;5012121;28;20037;-77
2022/05/05 03:51:03;;;;;;;31.70;12.70;;;;;;;9.73;86.23;92748.38;5014365;28;20037;-78
2022/05/05 03:53:28;;;;;;;30.73;12.45;;;;;;;9.70;86.33;92748.91;5013316;28;20026;-77
2022/05/05 03:55:54;;;;;;;33.15;15.07;;;;;;;9.72;86.82;92749.41;5011874;28;20046;-77
2022/05/05 03:58:20;;;;;;;37.15;15.98;;;;;;;9.71;88.52;92755.72;4996483;28;20065;-78
2022/05/05 04:00:46;;;;;;;34.58;15.23;;;;;;;9.68;88.83;92750.25;5014076;28;20139;-77
2022/05/05 04:03:30;;;;;;;36.65;16.33;;;;;;;9.64;88.88;92744.78;5013464;28;20022;-77
2022/05/05 04:05:59;;;;;;;33.65;16.08;;;;;;;9.68;89.25;92748.44;5012203;28;20061;-77
2022/05/05 04:08:25;;;;;;;39.58;16.05;;;;;;;9.65;89.53;92745.56;5011743;28;20073;-77
2022/05/05 04:10:51;;;;;;;40.47;17.90;;;;;;;9.66;89.46;92740.09;5013443;28;20387;-77
2022/05/05 04:13:18;;;;;;;46.42;19.50;;;;;;;9.66;88.85;92747.13;5016265;28;20052;-77
2022/05/05 04:15:44;;;;;;;47.08;20.08;;;;;;;9.65;88.23;92743.72;4992530;28;20080;-79
2022/05/05 04:18:09;;;;;;;49.70;20.00;;;;;;;9.66;88.50;92742.69;5012843;28;20030;-79
2022/05/05 04:20:35;;;;;;;45.30;18.70;;;;;;;9.70;88.77;92743.69;4993957;28;20033;-79
2022/05/05 04:23:00;;;;;;;41.03;18.08;;;;;;;9.70;88.28;92733.22;5012326;28;20040;-77
2022/05/05 04:25:26;;;;;;;39.63;15.93;;;;;;;9.68;87.49;92730.13;5012469;28;20049;-78
2022/05/05 04:27:52;;;;;;;33.30;15.32;;;;;;;9.69;86.64;92726.44;5013360;28;20128;-78
2022/05/05 04:30:18;;;;;;;33.85;14.93;;;;;;;9.72;85.45;92723.28;5016396;28;20033;-79
2022/05/05 04:32:44;;;;;;;39.00;17.23;;;;;;;9.80;83.95;92733.16;5003907;28;20034;-79
2022/05/05 04:35:11;;;;;;;36.20;15.77;;;;;;;9.82;84.26;92724.25;5013166;28;20033;-79
2022/05/05 04:37:38;;;;;;;34.90;15.60;;;;;;;9.80;84.05;92730.53;5014090;28;20455;-78
2022/05/05 04:40:04;;;;;;;33.25;12.98;;;;;;;9.83;83.86;92731.06;5013037;28;20117;-78
2022/05/05 04:42:30;;;;;;;27.77;12.57;;;;;;;9.86;83.50;92727.88;5013490;28;20034;-78
2022/05/05 04:44:55;;;;;;;26.85;12.55;;;;;;;9.87;83.24;92732.84;5014117;28;20057;-78
2022/05/05 04:47:21;;;;;;;31.00;13.63;;;;;;;9.88;83.45;92736.22;5013886;28;20040;-78
2022/05/05 04:49:47;;;;;;;36.35;15.10;;;;;;;9.91;83.94;92739.09;5003049;28;20104;-78
2022/05/05 04:52:13;;;;;;;32.42;15.18;;;;;;;9.95;83.30;92741.91;5006365;28;20388;-79
2022/05/05 04:54:39;;;;;;;32.85;15.05;;;;;;;9.92;83.26;92747.69;5015950;28;20030;-78
2022/05/05 04:57:04;;;;;;;40.65;15.15;;;;;;;9.91;84.01;92754.00;5013114;28;20053;-79
2022/05/05 04:59:30;;;;;;;39.13;15.20;;;;;;;9.88;84.18;92750.06;5014880;28;20034;-79
2022/05/05 05:01:56;;;;;;;32.28;14.63;;;;;;;9.89;85.15;92756.09;5012104;28;20488;-78
2022/05/05 05:04:21;;;;;;;44.20;16.73;;;;;;;9.83;85.26;92746.75;5013106;28;20045;-81
2022/05/05 05:06:47;;;;;;;34.38;15.52;;;;;;;9.89;85.80;92743.81;5010240;28;20101;-79
2022/05/05 05:09:12;;;;;;;40.30;15.88;;;;;;;9.93;86.41;92751.84;4999608;28;20033;-78
2022/05/05 05:11:38;;;;;;;32.55;15.00;;;;;;;9.96;86.68;92756.56;5019724;28;20041;-78
2022/05/05 05:14:04;;;;;;;38.38;15.38;;;;;;;9.96;86.33;92765.19;5019679;28;20057;-79
2022/05/05 05:16:29;;;;;;;37.60;15.20;;;;;;;9.98;85.05;92763.06;5015930;28;20069;-79
2022/05/05 05:18:55;;;;;;;34.05;15.07;;;;;;;10.01;86.07;92759.13;5017426;28;20519;-78
2022/05/05 05:21:21;;;;;;;36.55;15.27;;;;;;;10.13;85.46;92756.94;5013210;28;20036;-78
2022/05/05 05:23:47;;;;;;;38.10;14.68;;;;;;;10.18;85.35;92756.09;5008051;28;20045;-78
2022/05/05 05:26:15;;;;;;;38.53;15.57;;;;;;;10.16;86.17;92761.59;5012529;28;20100;-78
2022/05/05 05:28:41;;;;;;;38.47;16.35;;;;;;;10.17;86.10;92757.91;5014404;28;20317;-78
2022/05/05 05:31:08;;;;;;;34.90;15.45;;;;;;;10.20;86.49;92765.22;5013238;28;20041;-79
2022/05/05 05:33:33;;;;;;;38.17;15.40;;;;;;;10.23;88.19;92768.34;5013139;28;20042;-78
2022/05/05 05:35:59;;;;;;;32.90;14.77;;;;;;;10.26;88.08;92779.03;5012159;28;20061;-78
2022/05/05 05:38:25;;;;;;;42.53;15.38;;;;;;;10.26;86.73;92778.25;5014265;28;20030;-75
2022/05/05 05:40:51;;;;;;;43.53;16.38;;;;;;;10.24;86.06;92775.13;5011028;28;20052;-76
2022/05/05 05:43:16;;;;;;;37.05;16.08;;;;;;;10.26;84.76;92780.88;5009745;28;20038;-76
2022/05/05 05:45:42;;;;;;;37.25;17.75;;;;;;;10.29;85.92;92785.56;5009649;28;20034;-76
2022/05/05 05:48:08;;;;;;;38.05;15.63;;;;;;;10.21;85.62;92782.47;5009866;28;20037;-76
2022/05/05 05:50:34;;;;;;;41.75;16.85;;;;;;;10.19;85.20;92792.44;5010939;28;20034;-76
2022/05/05 05:53:00;;;;;;;38.80;16.73;;;;;;;10.29;85.79;92796.03;5009561;28;20038;-76
2022/05/05 05:55:26;;;;;;;38.65;15.93;;;;;;;10.24;84.88;92789.00;5011282;28;20391;-76
2022/05/05 05:57:52;;;;;;;39.33;17.05;;;;;;;10.26;86.24;92796.56;5009886;28;20058;-76
2022/05/05 06:00:18;;;;;;;36.70;14.20;;;;;;;10.57;85.37;92802.31;5011916;28;20046;-76
2022/05/05 06:05:28;;;;;;;38.75;15.25;;;;;;;10.12;87.89;92804.28;5010844;28;20042;-77
2022/05/05 06:08:01;;;;;;;31.17;14.32;;;;;;;10.08;88.53;92801.44;5008099;28;20041;-77
2022/05/05 06:10:27;;;;;;;38.40;16.50;;;;;;;10.08;89.23;92811.88;4998658;28;20042;-76
2022/05/05 06:12:54;;;;;;;33.90;15.48;;;;;;;10.12;89.52;92805.06;5010516;28;20042;-76
2022/05/05 06:15:24;;;;;;;36.97;16.38;;;;;;;10.17;89.56;92810.25;5011450;28;20041;-76
2022/05/05 06:17:52;;;;;;;44.00;15.93;;;;;;;10.23;89.33;92818.84;5010340;28;20180;-75
2022/05/05 06:20:18;;;;;;;31.73;14.93;;;;;;;10.27;88.38;92825.09;4998938;28;20057;-76
2022/05/05 06:22:44;;;;;;;35.60;15.23;;;;;;;10.32;87.99;92816.44;4995839;28;20480;-76
2022/05/05 06:25:13;;;;;;;27.85;14.07;;;;;;;10.38;87.77;92815.31;5014126;28;20050;-77
2022/05/05 06:27:40;;;;;;;35.72;15.68;;;;;;;10.46;88.83;92822.56;5013409;28;20116;-76
2022/05/05 06:30:09;;;;;;;39.08;15.75;;;;;;;10.49;87.90;92829.91;5004743;28;20125;-76
2022/05/05 06:32:35;;;;;;;42.30;16.25;;;;;;;10.48;89.49;92830.16;5004002;28;20044;-76
2022/05/05 06:35:00;;;;;;;45.63;17.05;;;;;;;10.48;88.54;92828.31;5012372;28;20041;-77
2022/05/05 06:37:26;;;;;;;36.92;16.17;;;;;;;10.54;88.23;92829.06;5012657;28;20029;-76
2022/05/05 06:39:52;;;;;;;34.97;14.52;;;;;;;10.57;88.41;92834.50;5012999;28;20041;-76
2022/05/05 06:42:18;;;;;;;34.72;13.50;;;;;;;10.55;88.78;92830.59;5009754;28;20084;-76
2022/05/05 06:44:44;;;;;;;30.48;14.68;;;;;;;10.63;89.63;92827.41;5012862;28;20037;-77
2022/05/05 06:47:11;;;;;;;37.15;15.38;;;;;;;10.65;89.62;92824.47;5013571;28;20072;-77
2022/05/05 06:49:36;;;;;;;39.88;15.52;;;;;;;10.64;89.44;92828.94;5014163;28;20038;-76
2022/05/05 06:52:03;;;;;;;38.33;15.85;;;;;;;10.65;89.54;92824.47;5012102;28;20467;-76
2022/05/05 06:54:29;;;;;;;39.42;16.35;;;;;;;10.67;90.22;92819.75;5013273;28;20068;-76
2022/05/05 06:56:55;;;;;;;33.92;15.05;;;;;;;10.69;90.12;92820.25;5012706;28;20073;-76
2022/05/05 06:59:21;;;;;;;35.03;14.73;;;;;;;10.69;89.23;92822.88;5013718;28;20064;-76
2022/05/05 07:01:52;;;;;;;39.10;14.90;;;;;;;10.68;88.48;92835.19;5010712;28;20112;-76
2022/05/05 07:07:04;;;;;;;26.08;12.35;;;;;;;10.83;89.73;92842.91;5013292;28;20049;-76
2022/05/05 07:12:13;;;;;;;32.70;14.18;;;;;;;10.49;92.48;92842.19;5012151;28;20038;-76
2022/05/05 07:14:39;;;;;;;86.78;19.65;;;;;;;10.28;93.38;92838.94;5003955;28;20557;-76
2022/05/05 07:17:05;;;;;;;46.92;16.70;;;;;;;10.21;93.72;92840.03;5013529;28;20033;-76
2022/05/05 07:19:30;;;;;;;32.53;14.15;;;;;;;10.25;93.03;92836.88;5013576;28;20242;-75
2022/05/05 07:21:56;;;;;;;32.70;15.55;;;;;;;10.21;92.99;92839.25;5012213;28;20041;-76
2022/05/05 07:24:22;;;;;;;26.83;13.68;;;;;;;10.28;93.38;92836.31;5011287;28;20038;-75
2022/05/05 07:26:47;;;;;;;31.50;15.02;;;;;;;10.29;91.34;92837.91;5013184;28;20038;-76
2022/05/05 07:29:14;;;;;;;31.63;14.73;;;;;;;10.35;92.00;92842.03;5013220;28;20100;-76
2022/05/05 07:31:39;;;;;;;30.75;14.70;;;;;;;10.39;92.13;92835.22;5012268;28;20034;-76
2022/05/05 07:34:06;;;;;;;32.30;13.95;;;;;;;10.47;90.85;92842.47;5010124;28;20712;-76
2022/05/05 07:36:31;;;;;;;32.10;13.18;;;;;;;10.54;89.59;92835.06;5013036;28;20042;-76
2022/05/05 07:38:57;;;;;;;31.67;12.88;;;;;;;10.58;89.44;92851.78;5012127;28;20053;-76
2022/05/05 07:41:22;;;;;;;25.30;12.63;;;;;;;10.61;88.67;92853.06;5011906;28;20084;-76
2022/05/05 07:43:50;;;;;;;27.67;12.05;;;;;;;10.67;88.42;92848.56;5010018;28;20041;-76
2022/05/05 07:46:19;;;;;;;26.42;13.48;;;;;;;10.68;89.82;92853.53;5012950;28;20049;-76
2022/05/05 07:48:45;;;;;;;27.17;12.35;;;;;;;10.74;88.96;92855.03;5012933;28;20115;-76
2022/05/05 07:51:11;;;;;;;23.48;12.23;;;;;;;10.75;89.62;92851.34;5011653;28;20045;-76
2022/05/05 07:53:37;;;;;;;25.35;12.27;;;;;;;10.81;89.62;92849.47;5006183;28;20042;-76
2022/05/05 07:56:03;;;;;;;26.75;12.57;;;;;;;10.89;89.11;92856.69;4993030;28;20034;-76
2022/05/05 07:58:28;;;;;;;24.92;12.20;;;;;;;10.95;88.12;92858.22;4993368;28;20030;-76
2022/05/05 08:00:54;;;;;;;22.98;12.70;;;;;;;11.00;86.38;92867.84;4991970;28;20124;-76
2022/05/05 08:03:20;;;;;;;26.48;12.55;;;;;;;11.01;85.17;92872.81;4993024;28;20085;-76
2022/05/05 08:05:45;;;;;;;22.17;11.13;;;;;;;10.97;80.68;92877.06;4992965;28;20040;-76
2022/05/05 08:08:11;;;;;;;21.77;11.30;;;;;;;10.95;80.60;92871.31;4992937;28;20034;-76
2022/05/05 08:10:36;;;;;;;26.80;11.50;;;;;;;10.97;81.17;92876.28;4993327;28;20048;-76
2022/05/05 08:13:04;;;;;;;22.10;10.80;;;;;;;10.98;80.71;92881.22;4991340;28;20034;-76
2022/05/05 08:15:30;;;;;;;20.25;11.35;;;;;;;10.97;80.04;92877.06;4992506;28;20908;-75
2022/05/05 08:17:55;;;;;;;22.83;11.57;;;;;;;10.96;82.76;92883.34;4992744;28;20120;-76
2022/05/05 08:20:21;;;;;;;20.92;11.23;;;;;;;10.92;83.99;92882.34;4992638;28;20078;-76
2022/05/05 08:22:47;;;;;;;25.55;11.82;;;;;;;10.93;85.27;92883.91;4991222;28;20046;-76
2022/05/05 08:30:41;;;;;;;14.68;9.15;;;;;;;11.04;90.16;92890.59;4992378;28;20121;-75
2022/05/05 08:33:06;;;;;;;19.88;9.95;;;;;;;11.06;91.41;92890.31;4992242;28;20125;-76
2022/05/05 08:35:32;;;;;;;16.88;9.65;;;;;;;11.04;93.59;92890.59;4993379;28;20066;-75
2022/05/05 08:37:58;;;;;;;17.10;9.73;;;;;;;11.06;92.10;92892.16;4991177;28;20088;-76
2022/05/05 08:40:26;;;;;;;15.10;8.95;;;;;;;11.08;92.12;92897.88;4991093;28;20420;-76
2022/05/05 08:42:51;;;;;;;14.45;9.20;;;;;;;11.06;93.40;92897.41;4991902;28;20034;-76
2022/05/05 08:45:17;;;;;;;16.45;10.00;;;;;;;11.01;94.57;92898.22;4992149;28;20026;-76
2022/05/05 08:47:45;;;;;;;22.55;11.38;;;;;;;11.01;94.56;92901.63;4992118;28;20046;-76
2022/05/05 08:50:12;;;;;;;16.70;10.27;;;;;;;11.06;94.88;92898.19;4990750;28;20040;-76
2022/05/05 08:52:48;;;;;;;17.52;9.90;;;;;;;11.10;92.01;92903.63;4996494;28;20026;-76
2022/05/05 08:55:20;;;;;;;15.48;8.70;;;;;;;11.07;90.29;92901.59;5010657;28;20360;-76
2022/05/05 08:57:46;;;;;;;16.77;9.13;;;;;;;11.02;92.94;92905.03;4997781;28;20030;-76
2022/05/05 09:00:14;;;;;;;18.95;10.73;;;;;;;10.96;95.15;92906.13;4992230;28;20100;-75
2022/05/05 09:02:40;;;;;;;16.95;9.90;;;;;;;10.97;94.15;92905.88;4991878;28;20030;-76
2022/05/05 09:05:07;;;;;;;15.57;9.60;;;;;;;11.04;94.56;92900.31;4992010;28;20050;-76
2022/05/05 09:07:52;;;;;;;17.77;9.60;;;;;;;11.09;95.50;92904.72;4993089;28;20022;-76
2022/05/05 09:10:20;;;;;;;24.50;9.60;;;;;;;11.19;95.88;92901.97;4990691;28;20138;-75
2022/05/05 09:12:59;;;;;;;15.88;9.00;;;;;;;11.21;95.36;92900.66;4990414;28;20511;-76
2022/05/05 09:15:33;;;;;;;14.35;8.88;;;;;;;11.23;93.70;92908.97;4991932;28;20070;-76
2022/05/05 09:18:15;;;;;;;13.80;8.85;;;;;;;11.19;92.30;92910.63;4991611;28;20046;-75
2022/05/05 09:20:42;;;;;;;14.88;10.05;;;;;;;11.06;91.09;92918.38;5010964;28;20038;-76
2022/05/05 09:23:08;;;;;;;14.10;9.85;;;;;;;11.03;91.06;92915.25;5008889;28;20113;-76
2022/05/05 09:25:44;;;;;;;17.85;9.73;;;;;;;10.96;88.40;92924.47;5011178;28;20111;-76
2022/05/05 09:28:21;;;;;;;16.38;9.52;;;;;;;10.85;87.72;92923.78;4993903;28;20553;-76
2022/05/05 09:30:52;;;;;;;14.90;9.50;;;;;;;10.83;87.34;92923.31;4992611;28;20073;-75
2022/05/05 09:33:42;;;;;;;20.17;10.48;;;;;;;10.80;87.00;92922.00;4991497;28;20046;-76
2022/05/05 09:36:11;;;;;;;16.85;9.77;;;;;;;10.80;85.96;92924.63;4958028;28;20458;-76
2022/05/05 09:38:56;;;;;;;18.00;9.73;;;;;;;10.74;86.76;92930.97;4974120;28;20134;-76
2022/05/05 09:41:28;;;;;;;13.50;8.43;;;;;;;10.66;86.63;92930.78;4992620;28;20038;-75
2022/05/05 09:43:55;;;;;;;13.60;8.82;;;;;;;10.66;87.97;92934.19;4985626;28;20038;-76
2022/05/05 09:46:25;;;;;;;16.17;9.55;;;;;;;10.60;89.28;92932.66;5009675;28;20030;-75
2022/05/05 09:49:07;;;;;;;15.88;8.88;;;;;;;10.58;89.57;92938.19;5010919;28;20037;-73
2022/05/05 09:57:42;;;;;;;14.50;9.23;;;;;;;10.56;86.97;92942.91;5012993;28;20037;-75
2022/05/05 10:05:45;;;;;;;16.05;9.98;;;;;;;10.72;88.32;92927.06;5013618;28;20038;-75
2022/05/05 10:08:15;;;;;;;17.00;10.25;;;;;;;10.81;88.23;92922.78;5009202;28;20053;-76
2022/05/05 10:10:45;;;;;;;18.48;10.05;;;;;;;10.94;88.29;92923.97;5012983;28;20526;-76
2022/05/05 10:13:12;;;;;;;14.77;9.43;;;;;;;11.02;88.67;92918.91;5000343;28;20052;-75
2022/05/05 10:15:39;;;;;;;13.77;9.50;;;;;;;11.14;87.51;92922.97;5008955;28;20030;-76
2022/05/05 10:18:05;;;;;;;17.30;9.80;;;;;;;11.26;87.34;92931.25;5014669;28;20454;-76
2022/05/05 10:20:35;;;;;;;14.00;9.40;;;;;;;11.38;87.03;92926.38;5014562;28;20125;-76
2022/05/05 10:23:11;;;;;;;15.35;10.18;;;;;;;11.46;85.81;92925.78;4982488;28;20053;-76
2022/05/05 10:25:39;;;;;;;15.75;9.77;;;;;;;11.60;85.69;92923.25;4981135;28;20194;-76
2022/05/05 10:28:37;;;;;;;15.57;10.20;;;;;;;11.73;85.21;92924.41;5011052;28;20037;-76
2022/05/05 10:31:02;;;;;;;20.65;11.15;;;;;;;11.83;85.81;92924.25;4997041;28;20511;-76
2022/05/05 10:34:00;;;;;;;18.00;11.25;;;;;;;11.92;85.68;92916.56;4993868;28;20073;-76
2022/05/05 10:36:30;;;;;;;15.88;10.95;;;;;;;12.02;84.61;92918.28;4994656;28;20030;-76
2022/05/05 10:38:56;;;;;;;16.10;10.55;;;;;;;12.14;83.84;92921.25;4994722;28;20536;-76
2022/05/05 10:41:31;;;;;;;17.23;12.10;;;;;;;12.21;81.66;92921.69;4994713;28;20061;-76
2022/05/05 10:44:22;;;;;;;17.30;11.70;;;;;;;12.24;81.21;92921.09;4994893;28;20030;-76
2022/05/05 10:46:51;;;;;;;88.38;14.80;;;;;;;12.50;87.79;92918.09;4983977;28;20042;-76
2022/05/05 10:49:37;;;;;;;17.67;12.80;;;;;;;12.10;88.62;92917.63;4977364;28;20435;-76
2022/05/05 10:52:08;;;;;;;20.92;13.52;;;;;;;12.08;87.53;92912.66;5004457;28;20034;-76
2022/05/05 10:54:39;;;;;;;18.92;12.98;;;;;;;12.13;88.30;92914.44;4999719;28;20030;-76
2022/05/05 10:57:23;;;;;;;23.60;13.88;;;;;;;11.99;89.73;92914.38;5006863;28;20476;-75
2022/05/05 11:00:18;;;;;;;19.55;13.73;;;;;;;11.90;94.11;92912.69;4996218;28;20038;-76
2022/05/05 11:02:58;;;;;;;23.08;15.20;;;;;;;11.97;91.88;92913.09;5013898;28;20030;-76
2022/05/05 11:05:31;;;;;;;24.17;15.68;;;;;;;11.48;96.20;92908.97;5010930;28;20026;-76
2022/05/05 11:08:07;;;;;;;25.17;17.23;;;;;;;11.59;93.67;92910.41;5008113;28;20339;-76
2022/05/05 11:10:47;;;;;;;20.17;14.02;;;;;;;11.61;92.77;92908.28;5008295;28;20120;-76
2022/05/05 11:13:32;;;;;;;29.17;17.48;;;;;;;11.45;94.52;92916.34;5013338;28;20034;-76
2022/05/05 11:22:07;;;;;;;24.80;15.30;;;;;;;11.46;95.00;92910.06;5003990;28;20108;-75
2022/05/05 11:24:33;;;;;;;20.40;14.30;;;;;;;11.57;96.61;92912.53;4979454;28;20050;-76
2022/05/05 11:27:00;;;;;;;22.98;14.20;;;;;;;11.52;96.41;92907.34;5011794;28;20038;-76
2022/05/05 11:29:32;;;;;;;19.88;14.45;;;;;;;11.35;95.43;92907.81;5013331;28;20038;-75
2022/05/05 11:32:04;;;;;;;48.65;15.93;;;;;;;11.48;98.10;92903.72;4995721;28;20076;-76
2022/05/05 11:34:34;;;;;;;23.17;14.48;;;;;;;11.50;93.75;92901.63;5013081;28;20458;-75
2022/05/05 11:37:01;;;;;;;22.60;14.18;;;;;;;11.57;91.89;92896.81;5011455;28;20490;-76
2022/05/05 11:39:31;;;;;;;22.85;14.13;;;;;;;11.55;88.70;92898.91;5013410;28;20057;-76
2022/05/05 11:41:59;;;;;;;22.33;14.52;;;;;;;11.54;89.78;92898.16;5013143;28;20431;-76
2022/05/05 11:44:25;;;;;;;23.23;14.50;;;;;;;11.57;93.35;92902.84;5013035;28;20132;-76
2022/05/05 11:46:53;;;;;;;18.85;13.38;;;;;;;11.72;94.92;92899.22;5012352;28;20046;-75
2022/05/05 11:49:19;;;;;;;19.45;13.60;;;;;;;11.53;95.42;92891.34;5012276;28;20049;-75
2022/05/05 11:51:45;;;;;;;20.02;13.27;;;;;;;11.30;96.11;92898.16;4979308;28;20562;-75
2022/05/05 11:54:14;;;;;;;18.80;13.02;;;;;;;11.30;96.34;92898.16;5013306;28;20149;-76
2022/05/05 11:56:46;;;;;;;22.35;13.63;;;;;;;11.32;95.83;92900.50;5011891;28;20350;-76
2022/05/05 12:02:11;;;;;;;20.65;14.63;;;;;;;11.15;97.25;92890.50;5012614;28;20042;-75
2022/05/05 12:04:49;;;;;;;18.40;12.98;;;;;;;11.16;95.29;92886.81;4995313;28;20072;-76
2022/05/05 12:07:20;;;;;;;19.50;13.38;;;;;;;11.25;96.93;92899.00;5012669;28;20034;-76